createdAt,value
2022-12-26T00:01:07.761Z,20.65
2022-12-26T00:03:34.847Z,23.13
2022-12-26T00:06:02.308Z,21.25
2022-12-26T00:08:29.386Z,21.13
2022-12-26T00:10:56.592Z,25.25
2022-12-26T00:13:39.998Z,27.33
2022-12-26T00:16:11.074Z,23.42
2022-12-26T00:18:39.811Z,25.38
2022-12-26T00:21:08.906Z,25.58
2022-12-26T00:23:36.878Z,29.85
2022-12-26T00:26:13.572Z,24.05
2022-12-26T00:28:41.804Z,27.83
2022-12-26T00:31:17.200Z,30.92
2022-12-26T00:33:44.354Z,34.55
2022-12-26T00:36:14.157Z,33.50
2022-12-26T00:38:42.764Z,31.95
2022-12-26T00:41:11.980Z,26.40
2022-12-26T00:43:39.166Z,29.42
2022-12-26T00:46:07.987Z,30.65
2022-12-26T00:48:35.278Z,30.75
2022-12-26T00:51:03.019Z,34.25
2022-12-26T00:53:30.408Z,33.65
2022-12-26T00:55:57.666Z,29.73
2022-12-26T00:58:25.389Z,29.65
2022-12-26T01:00:52.881Z,28.02
2022-12-26T01:03:20.157Z,32.90
2022-12-26T01:05:49.957Z,29.75
2022-12-26T01:08:19.816Z,26.85
2022-12-26T01:10:51.086Z,25.55
2022-12-26T01:13:18.253Z,25.77
2022-12-26T01:15:52.667Z,24.77
2022-12-26T01:18:20.591Z,19.48
2022-12-26T01:20:48.929Z,23.50
2022-12-26T01:23:17.093Z,32.58
2022-12-26T01:26:18.652Z,24.67
2022-12-26T01:28:31.744Z,22.65
2022-12-26T01:31:03.908Z,23.00
2022-12-26T01:33:31.824Z,22.58
2022-12-26T01:35:59.346Z,31.95
2022-12-26T01:38:26.527Z,26.27
2022-12-26T01:41:13.744Z,27.10
2022-12-26T01:43:59.104Z,31.85
2022-12-26T01:46:32.377Z,27.73
2022-12-26T01:49:07.259Z,30.15
2022-12-26T01:51:39.562Z,27.98
2022-12-26T01:54:40.606Z,27.58
2022-12-26T01:56:58.306Z,25.50
2022-12-26T01:59:28.566Z,31.00
2022-12-26T02:01:55.952Z,30.95
2022-12-26T02:04:47.483Z,29.30
2022-12-26T02:07:14.647Z,36.42
2022-12-26T02:09:42.833Z,33.80
2022-12-26T02:12:38.429Z,38.13
2022-12-26T02:15:17.098Z,34.45
2022-12-26T02:17:44.359Z,36.95
2022-12-26T02:20:22.506Z,38.20
2022-12-26T02:23:08.097Z,41.53
2022-12-26T02:26:10.947Z,37.88
2022-12-26T02:29:10.705Z,35.90
2022-12-26T02:32:11.414Z,35.92
2022-12-26T02:35:23.504Z,37.53
2022-12-26T02:38:16.686Z,39.63
2022-12-26T02:41:03.595Z,34.65
2022-12-26T02:44:35.259Z,40.35
2022-12-26T02:47:43.794Z,36.80
2022-12-26T02:50:35.383Z,37.80
2022-12-26T02:53:52.225Z,35.33
2022-12-26T02:56:45.144Z,33.63
2022-12-26T02:59:57.001Z,35.42
2022-12-26T03:02:53.444Z,33.42
2022-12-26T03:05:49.162Z,31.45
2022-12-26T03:08:43.103Z,34.97
2022-12-26T03:11:28.872Z,37.50
2022-12-26T03:14:08.198Z,37.20
2022-12-26T03:17:08.287Z,34.22
2022-12-26T03:19:58.095Z,35.50
2022-12-26T03:22:52.774Z,42.25
2022-12-26T03:25:54.115Z,31.00
2022-12-26T03:28:22.565Z,34.17
2022-12-26T03:30:49.907Z,36.45
2022-12-26T03:33:38.218Z,34.92
2022-12-26T03:36:07.297Z,34.08
2022-12-26T03:38:56.092Z,30.55
2022-12-26T03:41:55.623Z,38.83
2022-12-26T03:45:08.393Z,35.65
2022-12-26T03:48:11.849Z,36.22
2022-12-26T03:51:04.199Z,31.38
2022-12-26T03:53:56.781Z,29.38
2022-12-26T03:56:54.653Z,32.50
2022-12-26T03:59:49.279Z,35.10
2022-12-26T04:02:36.889Z,32.45
2022-12-26T04:05:23.821Z,30.80
2022-12-26T04:08:18.597Z,33.53
2022-12-26T04:11:16.454Z,35.60
2022-12-26T04:14:25.417Z,27.67
2022-12-26T04:17:19.381Z,28.60
2022-12-26T04:20:08.053Z,25.70
2022-12-26T04:23:07.579Z,29.20
2022-12-26T04:26:08.346Z,30.65
2022-12-26T04:28:54.352Z,27.40
2022-12-26T04:31:51.548Z,25.20
2022-12-26T04:35:14.298Z,30.65
2022-12-26T04:38:03.555Z,24.15
2022-12-26T04:40:53.046Z,22.95
2022-12-26T04:43:50.391Z,22.63
2022-12-26T04:46:21.058Z,28.25
2022-12-26T04:49:09.428Z,22.05
2022-12-26T04:51:36.861Z,21.95
2022-12-26T04:54:05.564Z,22.05
2022-12-26T04:56:32.966Z,26.63
2022-12-26T04:59:00.080Z,21.90
2022-12-26T05:01:46.170Z,24.30
2022-12-26T05:04:33.203Z,20.85
2022-12-26T05:07:20.492Z,23.83
2022-12-26T05:09:53.321Z,20.80
2022-12-26T05:12:20.981Z,28.13
2022-12-26T05:14:48.261Z,24.50
2022-12-26T05:17:34.058Z,25.10
2022-12-26T05:20:19.759Z,29.27
2022-12-26T05:23:06.045Z,29.75
2022-12-26T05:25:56.623Z,28.17
2022-12-26T05:28:42.517Z,32.13
2022-12-26T05:31:17.486Z,32.35
2022-12-26T05:34:03.605Z,23.38
2022-12-26T05:36:37.389Z,25.95
2022-12-26T05:41:32.185Z,24.80
2022-12-26T05:43:59.397Z,33.78
2022-12-26T05:46:26.766Z,26.05
2022-12-26T05:48:53.967Z,20.65
2022-12-26T05:51:21.049Z,24.15
2022-12-26T05:53:48.643Z,22.85
2022-12-26T05:56:17.653Z,27.17
2022-12-26T05:58:45.643Z,28.30
2022-12-26T06:01:16.574Z,21.25
2022-12-26T06:03:47.649Z,22.08
2022-12-26T06:06:15.423Z,20.40
2022-12-26T06:08:43.162Z,23.05
2022-12-26T06:11:13.638Z,18.10
2022-12-26T06:13:42.026Z,17.67
2022-12-26T06:16:12.985Z,25.08
2022-12-26T06:18:40.874Z,23.45
2022-12-26T06:21:11.961Z,14.65
2022-12-26T06:23:39.483Z,16.67
2022-12-26T06:26:10.361Z,14.85
2022-12-26T06:28:40.187Z,17.23
2022-12-26T06:31:12.048Z,12.40
2022-12-26T06:33:39.099Z,16.63
2022-12-26T06:36:09.765Z,16.60
2022-12-26T06:38:38.173Z,12.05
2022-12-26T06:41:07.640Z,15.40
2022-12-26T06:43:35.015Z,12.07
2022-12-26T06:46:03.604Z,14.50
2022-12-26T06:48:31.524Z,11.20
2022-12-26T06:50:58.635Z,15.63
2022-12-26T06:53:25.782Z,12.43
2022-12-26T06:55:53.089Z,10.98
2022-12-26T06:58:20.108Z,10.52
2022-12-26T07:00:47.304Z,13.73
2022-12-26T07:03:14.468Z,12.85
2022-12-26T07:05:41.993Z,9.43
2022-12-26T07:08:09.144Z,15.95
2022-12-26T07:10:37.549Z,11.13
2022-12-26T07:13:04.597Z,10.73
2022-12-26T07:15:31.816Z,13.35
2022-12-26T07:17:58.974Z,9.25
2022-12-26T07:20:26.071Z,11.32
2022-12-26T07:22:55.233Z,11.18
2022-12-26T07:25:22.387Z,12.10
2022-12-26T07:27:53.478Z,13.00
2022-12-26T07:30:20.932Z,8.60
2022-12-26T07:32:47.969Z,8.85
2022-12-26T07:35:15.214Z,8.80
2022-12-26T07:37:42.292Z,10.98
2022-12-26T07:40:09.929Z,8.85
2022-12-26T07:42:37.824Z,9.98
2022-12-26T07:45:05.259Z,9.95
2022-12-26T07:47:32.279Z,10.50
2022-12-26T07:49:59.357Z,10.05
2022-12-26T07:52:26.954Z,9.68
2022-12-26T07:54:54.035Z,7.18
2022-12-26T07:57:50.245Z,7.43
2022-12-26T08:00:08.935Z,11.32
2022-12-26T08:02:36.765Z,9.73
2022-12-26T08:05:04.156Z,8.10
2022-12-26T08:07:31.256Z,7.72
2022-12-26T08:09:58.305Z,10.98
2022-12-26T08:12:26.790Z,9.88
2022-12-26T08:14:53.961Z,12.57
2022-12-26T08:17:21.286Z,8.95
2022-12-26T08:19:48.429Z,6.95
2022-12-26T08:22:15.751Z,12.18
2022-12-26T08:24:42.982Z,9.43
2022-12-26T08:27:10.908Z,7.72
2022-12-26T08:29:38.018Z,9.00
2022-12-26T08:32:07.110Z,7.60
2022-12-26T08:34:36.432Z,10.00
2022-12-26T08:37:03.653Z,10.80
2022-12-26T08:39:30.828Z,9.18
2022-12-26T08:41:57.854Z,5.93
2022-12-26T08:44:27.489Z,5.72
2022-12-26T08:46:55.237Z,7.40
2022-12-26T08:49:22.352Z,6.15
2022-12-26T08:51:49.517Z,5.57
2022-12-26T08:54:16.617Z,4.70
2022-12-26T08:56:43.894Z,3.83
2022-12-26T08:59:11.119Z,7.40
2022-12-26T09:01:38.923Z,9.02
2022-12-26T09:04:07.567Z,6.50
2022-12-26T09:06:37.538Z,9.27
2022-12-26T09:09:08.407Z,4.25
2022-12-26T09:11:38.692Z,10.57
2022-12-26T09:14:07.985Z,4.82
2022-12-26T09:16:49.562Z,7.15
2022-12-26T09:19:18.646Z,8.95
2022-12-26T09:21:46.464Z,4.55
2022-12-26T09:24:16.571Z,2.92
2022-12-26T09:26:44.437Z,7.50
2022-12-26T09:29:12.725Z,6.10
2022-12-26T09:31:42.315Z,6.60
2022-12-26T09:34:09.419Z,5.18
2022-12-26T09:36:38.887Z,4.53
2022-12-26T09:39:08.343Z,2.90
2022-12-26T09:41:44.504Z,3.47
2022-12-26T09:44:14.213Z,4.50
2022-12-26T09:47:02.924Z,4.57
2022-12-26T09:49:37.822Z,5.20
2022-12-26T09:52:38.400Z,8.43
2022-12-26T09:55:24.044Z,7.32
2022-12-26T09:57:54.759Z,7.78
2022-12-26T10:00:28.312Z,7.50
2022-12-26T10:02:58.894Z,11.77
2022-12-26T10:05:38.486Z,20.90
2022-12-26T10:08:33.735Z,9.25
2022-12-26T10:11:07.641Z,12.23
2022-12-26T10:13:40.074Z,8.70
2022-12-26T10:16:18.658Z,4.43
2022-12-26T10:19:07.490Z,10.02
2022-12-26T10:21:52.530Z,10.13
2022-12-26T10:24:25.469Z,8.90
2022-12-26T10:27:14.597Z,9.32
2022-12-26T10:29:53.152Z,13.93
2022-12-26T10:32:43.641Z,12.63
2022-12-26T10:35:28.598Z,6.70
2022-12-26T10:37:59.893Z,13.13
2022-12-26T10:40:38.224Z,5.93
2022-12-26T10:43:26.421Z,9.48
2022-12-26T10:46:24.348Z,6.90
2022-12-26T10:48:51.555Z,4.60
2022-12-26T10:51:19.771Z,7.82
2022-12-26T10:53:51.387Z,9.55
2022-12-26T10:56:19.895Z,11.43
2022-12-26T10:58:58.528Z,5.20
2022-12-26T11:01:28.555Z,7.65
2022-12-26T11:04:00.942Z,4.93
2022-12-26T11:06:32.831Z,5.13
2022-12-26T11:09:00.431Z,3.22
2022-12-26T11:11:48.640Z,7.78
2022-12-26T11:14:38.222Z,6.97
2022-12-26T11:17:09.133Z,2.85
2022-12-26T11:19:42.158Z,8.02
2022-12-26T11:22:25.817Z,7.32
2022-12-26T11:25:08.208Z,6.60
2022-12-26T11:27:42.317Z,6.00
2022-12-26T11:30:19.720Z,5.78
2022-12-26T11:32:51.439Z,3.65
2022-12-26T11:35:18.643Z,10.43
2022-12-26T11:37:48.747Z,4.93
2022-12-26T11:40:24.924Z,4.78
2022-12-26T11:42:56.853Z,4.80
2022-12-26T11:45:27.347Z,7.50
2022-12-26T11:48:00.875Z,3.35
2022-12-26T11:50:30.822Z,2.50
2022-12-26T11:52:57.868Z,6.25
2022-12-26T11:55:39.237Z,2.03
2022-12-26T11:58:09.405Z,3.42
2022-12-26T12:00:42.252Z,5.68
2022-12-26T12:03:19.787Z,7.13
2022-12-26T12:06:00.507Z,6.95
2022-12-26T12:08:49.359Z,5.18
2022-12-26T12:11:27.568Z,3.63
2022-12-26T12:14:27.691Z,4.82
2022-12-26T12:17:07.036Z,3.95
2022-12-26T12:19:38.016Z,5.25
2022-12-26T12:22:19.747Z,5.38
2022-12-26T12:25:01.665Z,6.13
2022-12-26T12:27:43.435Z,3.80
2022-12-26T12:30:34.212Z,2.90
2022-12-26T12:33:32.423Z,4.20
2022-12-26T12:36:10.892Z,3.63
2022-12-26T12:39:02.448Z,5.20
2022-12-26T12:42:05.066Z,5.82
2022-12-26T12:45:08.860Z,4.65
2022-12-26T12:48:17.544Z,1.30
2022-12-26T12:50:56.768Z,7.50
2022-12-26T12:53:29.682Z,8.27
2022-12-26T12:56:34.699Z,2.60
2022-12-26T12:59:25.870Z,3.15
2022-12-26T13:02:07.035Z,6.65
2022-12-26T13:04:45.907Z,6.65
2022-12-26T13:07:23.384Z,1.20
2022-12-26T13:09:57.055Z,1.95
2022-12-26T13:12:35.019Z,9.98
2022-12-26T13:15:14.072Z,7.32
2022-12-26T13:17:51.901Z,5.95
2022-12-26T13:20:27.596Z,5.57
2022-12-26T13:23:24.664Z,5.00
2022-12-26T13:26:07.792Z,3.58
2022-12-26T13:28:45.848Z,1.77
2022-12-26T13:31:14.000Z,1.48
2022-12-26T13:33:43.191Z,6.40
2022-12-26T13:36:11.089Z,8.57
2022-12-26T13:38:56.259Z,3.67
2022-12-26T13:41:44.646Z,3.30
2022-12-26T13:44:20.620Z,5.35
2022-12-26T13:46:47.616Z,2.15
2022-12-26T13:49:29.559Z,3.10
2022-12-26T13:52:12.281Z,2.83
2022-12-26T13:55:08.273Z,7.65
2022-12-26T13:57:44.156Z,6.28
2022-12-26T14:00:23.504Z,3.17
2022-12-26T14:03:16.622Z,4.50
2022-12-26T14:06:15.210Z,6.13
2022-12-26T14:09:21.465Z,4.05
2022-12-26T14:11:59.690Z,4.55
2022-12-26T14:15:23.414Z,10.25
2022-12-26T14:18:15.229Z,9.95
2022-12-26T14:21:39.873Z,13.75
2022-12-26T14:24:12.778Z,3.60
2022-12-26T14:26:48.519Z,8.75
2022-12-26T14:29:25.340Z,4.80
2022-12-26T14:32:16.956Z,10.13
2022-12-26T14:35:04.851Z,12.57
2022-12-26T14:37:44.635Z,7.50
2022-12-26T14:40:36.540Z,13.02
2022-12-26T14:43:23.544Z,8.95
2022-12-26T14:45:53.227Z,7.35
2022-12-26T14:48:23.315Z,4.88
2022-12-26T14:50:50.473Z,9.85
2022-12-26T14:53:17.518Z,6.95
2022-12-26T14:55:47.593Z,10.05
2022-12-26T14:58:39.460Z,3.88
2022-12-26T15:01:09.453Z,3.42
2022-12-26T15:03:45.019Z,6.45
2022-12-26T15:06:20.990Z,7.32
2022-12-26T15:08:53.836Z,4.13
2022-12-26T15:11:50.753Z,3.92
2022-12-26T15:14:51.916Z,7.35
2022-12-26T15:17:37.740Z,10.10
2022-12-26T15:20:23.537Z,9.90
2022-12-26T15:23:18.786Z,6.22
2022-12-26T15:26:00.667Z,11.27
2022-12-26T15:28:56.594Z,9.13
2022-12-26T15:31:42.098Z,12.35
2022-12-26T15:34:18.576Z,14.02
2022-12-26T15:36:53.892Z,10.25
2022-12-26T15:39:26.642Z,7.38
2022-12-26T15:42:22.835Z,6.15
2022-12-26T15:45:15.738Z,7.07
2022-12-26T15:47:54.813Z,12.98
2022-12-26T15:50:52.248Z,11.95
2022-12-26T15:53:43.889Z,12.48
2022-12-26T15:56:39.831Z,9.75
2022-12-26T15:59:44.468Z,14.60
2022-12-26T16:04:52.135Z,14.95
2022-12-26T16:07:31.603Z,19.95
2022-12-26T16:09:59.008Z,13.40
2022-12-26T16:12:30.646Z,20.45
2022-12-26T16:15:09.584Z,18.65
2022-12-26T16:17:38.819Z,13.70
2022-12-26T16:20:48.027Z,23.90
2022-12-26T16:23:18.816Z,13.77
2022-12-26T16:26:04.182Z,10.07
2022-12-26T16:28:36.784Z,14.88
2022-12-26T16:31:04.830Z,12.80
2022-12-26T16:33:39.917Z,11.60
2022-12-26T16:36:09.221Z,12.88
2022-12-26T16:38:38.158Z,8.15
2022-12-26T16:41:25.500Z,12.63
2022-12-26T16:43:54.780Z,16.13
2022-12-26T16:46:26.346Z,9.38
2022-12-26T16:48:57.699Z,11.15
2022-12-26T16:51:46.010Z,19.02
2022-12-26T16:54:27.621Z,14.38
2022-12-26T16:57:19.645Z,15.10
2022-12-26T16:59:49.374Z,9.80
2022-12-26T17:02:30.902Z,16.23
2022-12-26T17:05:38.124Z,17.17
2022-12-26T17:08:05.532Z,11.32
2022-12-26T17:10:37.873Z,13.55
2022-12-26T17:13:08.021Z,7.65
2022-12-26T17:15:39.758Z,11.20
2022-12-26T17:18:37.957Z,11.68
2022-12-26T17:21:20.165Z,10.95
2022-12-26T17:24:04.182Z,10.18
2022-12-26T17:28:58.352Z,10.88
2022-12-26T17:31:44.124Z,7.93
2022-12-26T17:34:26.512Z,14.00
2022-12-26T17:39:42.609Z,11.88
2022-12-26T17:42:12.727Z,14.18
2022-12-26T17:44:43.742Z,9.20
2022-12-26T17:47:24.200Z,11.05
2022-12-26T17:49:52.860Z,8.50
2022-12-26T17:52:23.636Z,15.02
2022-12-26T17:54:52.065Z,20.02
2022-12-26T17:57:24.320Z,11.77
2022-12-26T17:59:53.017Z,11.98
2022-12-26T18:02:20.663Z,19.88
2022-12-26T18:04:48.991Z,16.30
2022-12-26T18:07:31.062Z,10.02
2022-12-26T18:10:00.246Z,8.55
2022-12-26T18:12:28.043Z,8.27
2022-12-26T18:15:01.363Z,13.55
2022-12-26T18:17:33.211Z,12.57
2022-12-26T18:20:01.727Z,10.20
2022-12-26T18:22:28.832Z,8.52
2022-12-26T18:24:55.913Z,6.82
2022-12-26T18:27:33.410Z,9.55
2022-12-26T18:30:00.793Z,10.65
2022-12-26T18:32:32.982Z,13.50
2022-12-26T18:35:00.677Z,18.60
2022-12-26T18:37:30.423Z,12.75
2022-12-26T18:39:57.567Z,19.00
2022-12-26T18:42:26.245Z,15.65
2022-12-26T18:44:53.486Z,11.80
2022-12-26T18:47:22.090Z,19.95
2022-12-26T18:49:49.584Z,18.95
2022-12-26T18:52:17.415Z,16.05
2022-12-26T18:54:45.647Z,12.95
2022-12-26T18:57:19.555Z,19.92
2022-12-26T18:59:48.214Z,14.20
2022-12-26T19:02:20.598Z,16.55
2022-12-26T19:04:48.866Z,17.30
2022-12-26T19:07:17.821Z,30.08
2022-12-26T19:09:47.292Z,63.30
2022-12-26T19:12:14.793Z,26.15
2022-12-26T19:14:44.709Z,18.48
2022-12-26T19:17:12.357Z,16.20
2022-12-26T19:19:39.559Z,16.42
2022-12-26T19:22:10.095Z,51.63
2022-12-26T19:24:38.010Z,47.33
2022-12-26T19:27:05.139Z,10.25
2022-12-26T19:29:32.476Z,7.72
2022-12-26T19:31:59.638Z,12.05
2022-12-26T19:34:26.828Z,11.43
2022-12-26T19:36:53.883Z,14.93
2022-12-26T19:39:21.273Z,10.00
2022-12-26T19:41:48.409Z,9.70
2022-12-26T19:44:15.550Z,12.88
2022-12-26T19:46:42.707Z,18.42
2022-12-26T19:49:09.733Z,13.77
2022-12-26T19:51:42.614Z,10.82
2022-12-26T19:54:09.711Z,4.55
2022-12-26T19:56:39.842Z,13.60
2022-12-26T19:59:07.829Z,7.50
2022-12-26T20:01:34.985Z,9.80
2022-12-26T20:04:04.066Z,17.00
2022-12-26T20:06:33.823Z,7.88
2022-12-26T20:09:08.696Z,9.05
2022-12-26T20:11:42.300Z,14.38
2022-12-26T20:14:13.585Z,11.45
2022-12-26T20:19:28.296Z,8.63
2022-12-26T20:21:55.609Z,7.18
2022-12-26T20:24:23.041Z,6.10
2022-12-26T20:26:50.328Z,12.23
2022-12-26T20:29:17.995Z,7.88
2022-12-26T20:31:45.882Z,6.72
2022-12-26T20:34:13.190Z,6.03
2022-12-26T20:36:42.144Z,7.95
2022-12-26T20:39:19.731Z,7.35
2022-12-26T20:41:47.070Z,4.10
2022-12-26T20:44:15.623Z,9.88
2022-12-26T20:46:43.846Z,11.27
2022-12-26T20:49:11.259Z,6.53
2022-12-26T20:51:41.133Z,7.00
2022-12-26T20:54:10.133Z,7.20
2022-12-26T20:56:38.424Z,5.43
2022-12-26T20:59:07.727Z,6.28
2022-12-26T21:01:35.480Z,8.32
2022-12-26T21:04:03.841Z,10.32
2022-12-26T21:06:34.103Z,2.75
2022-12-26T21:09:01.510Z,6.57
2022-12-26T21:11:29.616Z,5.50
2022-12-26T21:13:59.604Z,12.40
2022-12-26T21:16:39.353Z,10.82
2022-12-26T21:19:14.667Z,9.30
2022-12-26T21:21:45.532Z,9.18
2022-12-26T21:24:22.082Z,11.02
2022-12-26T21:26:49.906Z,15.60
2022-12-26T21:29:20.266Z,13.77
2022-12-26T21:31:48.379Z,13.07
2022-12-26T21:34:17.586Z,5.38
2022-12-26T21:37:03.577Z,6.57
2022-12-26T21:39:31.422Z,13.05
2022-12-26T21:41:58.952Z,14.23
2022-12-26T21:44:25.977Z,11.88
2022-12-26T21:46:53.212Z,12.93
2022-12-26T21:49:20.327Z,6.00
2022-12-26T21:51:47.372Z,7.25
2022-12-26T21:54:32.713Z,7.15
2022-12-26T21:56:59.754Z,5.32
2022-12-26T21:59:45.717Z,6.50
2022-12-26T22:02:33.029Z,7.35
2022-12-26T22:05:01.439Z,6.03
2022-12-26T22:07:28.867Z,6.70
2022-12-26T22:09:55.977Z,8.82
2022-12-26T22:12:42.334Z,14.35
2022-12-26T22:15:30.148Z,7.38
2022-12-26T22:17:57.565Z,6.28
2022-12-26T22:20:24.664Z,8.60
2022-12-26T22:22:51.998Z,8.38
2022-12-26T22:25:19.860Z,6.05
2022-12-26T22:27:46.944Z,7.22
2022-12-26T22:30:14.151Z,5.57
2022-12-26T22:32:41.336Z,15.07
2022-12-26T22:35:13.237Z,13.15
2022-12-26T22:37:43.612Z,5.45
2022-12-26T22:40:11.492Z,7.88
2022-12-26T22:42:38.660Z,4.70
2022-12-26T22:45:08.462Z,10.73
2022-12-26T22:47:35.568Z,9.48
2022-12-26T22:50:03.959Z,6.20
2022-12-26T22:52:30.988Z,7.47
2022-12-26T22:54:58.131Z,9.85
2022-12-26T22:57:25.259Z,9.07
2022-12-26T23:00:09.639Z,7.22
2022-12-26T23:02:38.180Z,9.35
2022-12-26T23:05:06.641Z,9.35
2022-12-26T23:07:33.969Z,7.00
2022-12-26T23:10:01.166Z,6.13
2022-12-26T23:12:43.753Z,13.82
2022-12-26T23:15:16.695Z,10.57
2022-12-26T23:18:24.384Z,9.70
2022-12-26T23:21:11.949Z,10.02
2022-12-26T23:23:39.453Z,4.63
2022-12-26T23:26:09.354Z,12.13
2022-12-26T23:29:12.033Z,8.52
2022-12-26T23:31:39.134Z,5.72
2022-12-26T23:34:06.840Z,9.40
2022-12-26T23:36:33.938Z,9.57
2022-12-26T23:39:01.089Z,9.35
2022-12-26T23:41:28.168Z,5.50
2022-12-26T23:43:55.261Z,8.95
2022-12-26T23:46:22.374Z,8.07
2022-12-26T23:48:49.527Z,23.90
2022-12-26T23:51:19.927Z,8.73
2022-12-26T23:53:46.940Z,7.25
2022-12-26T23:56:14.196Z,8.30
2022-12-26T23:58:42.241Z,12.23
